• Join FlightAware (Why Join?)
  • Login
  • US Flag 
03:58AM EST


 

Airport Tracker/Info


-or-


 

Live Flight TrackerFlight Track Log ✈ CNS214 ✈ 04-Aug-2013 ✈ KTEB - KPSM

Flight Track Log - Related Links

Times and Time Zones

All times are in EDT time to prevent confusion due to time zone crossing. See the CNS214 flight status page for this flight to view local times or setup timezone preferences in your user account.

Time Position Orientation Groundspeed Altitude Reporting Facility
EDT Latitude Longitude Course Direction KTS MPH feet Rate Location/Type
08:38PM 40.9000 -74.0833 270° West 173 199 3,100  Level New York TRACON
08:39PM 40.9333 -74.1333 311° West 157 181 4,700 1,440 Climbing New York TRACON
08:40PM 40.9667 -74.1667 323° Northwest 156 180 6,000 600 Climbing New York TRACON
08:41PM 41.0167 -74.1833 346° North 205 236 6,000  Level New York TRACON
08:42PM 41.0667 -74.1667 14° North 218 251 6,000  Level New York TRACON
08:43PM 41.1333 -74.1500 11° North 221 254 6,000 420 Level New York TRACON
08:44PM 41.1667 -74.0833 56° Northeast 222 255 7,000 1,200 Climbing New York TRACON
08:45PM 41.1833 -74.0167 72° East 208 239 8,500 1,380 Climbing New York TRACON
08:46PM 41.2000 -73.9500 72° East 209 241 9,700 1,260 Climbing New York TRACON
08:47PM 41.2167 -73.8667 75° East 216 249 10,900 600 Climbing New York TRACON
08:48PM 41.2333 -73.7833 75° East 264 304 11,000 600 Climbing New York TRACON
08:49PM 41.2500 -73.7000 75° East 244 281 12,200 1,320 Climbing New York TRACON
08:51PM 41.3069 -73.5508 63° Northeast 213 245 15,200 1,020 Climbing Boston Center
08:52PM 41.3472 -73.4964 45° Northeast 212 244 15,500 120 Climbing Boston Center
08:53PM 41.3978 -73.4197 49° Northeast 237 273 15,500  Level Boston Center
08:54PM 41.4422 -73.3567 47° Northeast 245 282 15,500  Level Boston Center
08:55PM 41.4950 -73.2769 49° Northeast 252 290 15,500  Level Boston Center
08:56PM 41.5392 -73.2139 47° Northeast 257 296 15,500  Level Boston Center
08:57PM 41.5917 -73.1339 49° Northeast 262 302 15,500  Level Boston Center
08:58PM 41.6381 -73.0678 47° Northeast 262 302 15,500  Level Boston Center
08:59PM 41.6883 -72.9878 50° Northeast 262 302 15,500  Level Boston Center
09:00PM 41.7325 -72.9214 48° Northeast 262 302 15,500  Level Boston Center
09:01PM 41.7892 -72.8383 48° Northeast 262 302 15,500  Level Boston Center
09:02PM 41.8350 -72.7661 50° Northeast 262 302 15,500  Level Boston Center
09:03PM 41.8833 -72.6911 49° Northeast 262 302 15,500  Level Boston Center
09:04PM 41.9292 -72.6242 47° Northeast 268 308 15,500  Level Boston Center
09:05PM 41.9836 -72.5433 48° Northeast 268 308 15,500  Level Boston Center
09:06PM 42.0272 -72.4764 49° Northeast 263 303 15,500  Level Boston Center
09:07PM 42.0794 -72.3953 49° Northeast 263 303 15,500  Level Boston Center
09:08PM 42.1231 -72.3281 49° Northeast 263 303 15,500  Level Boston Center
09:09PM 42.1772 -72.2439 49° Northeast 269 310 15,500  Level Boston Center
09:10PM 42.2231 -72.1767 47° Northeast 264 304 15,500  Level Boston Center
09:11PM 42.2747 -72.0950 49° Northeast 264 304 15,500  Level Boston Center
09:12PM 42.3206 -72.0244 49° Northeast 264 304 15,500  Level Boston Center
09:13PM 42.3742 -71.9400 49° Northeast 269 310 15,500  Level Boston Center
09:14PM 42.4239 -71.8608 50° Northeast 269 310 15,500  Level Boston Center
09:15PM 42.4756 -71.7842 48° Northeast 269 310 15,500  Level Boston Center
09:16PM 42.5231 -71.7078 50° Northeast 262 302 15,500 -240 Level Boston Center
09:17PM 42.5725 -71.6311 49° Northeast 262 302 15,100 -960 Descending Boston Center
09:18PM 42.6242 -71.5486 50° Northeast 278 320 13,600 -1,440 Descending Boston Center
09:19PM 42.6756 -71.4658 50° Northeast 278 320 12,300 -1,440 Descending Boston Center
09:20PM 42.7289 -71.3858 48° Northeast 283 326 10,700 -1,440 Descending Boston Center
09:21PM 42.7783 -71.3058 50° Northeast 283 326 9,400 -1,500 Descending Boston Center
09:22PM 42.8253 -71.2286 50° Northeast 271 312 7,800 -1,500 Descending Boston Center
09:23PM 42.8664 -71.1653 48° Northeast 258 297 6,500 -1,320 Descending Boston Center
09:24PM 42.9167 -71.0833 50° Northeast 239 275 5,200 -1,380 Descending KA90
09:25PM 42.9500 -71.0000 61° Northeast 255 293 3,900 -1,320 Descending KA90
09:26PM 42.9500 -70.9167 90° East 237 273 2,600 -960 Descending KA90
09:27PM 42.9667 -70.8333 75° East 184 212 2,000 -540 Descending KA90
09:28PM 43.0000 -70.8000 36° Northeast 131 151 1,600 -600 Descending KA90
09:29PM 43.0167 -70.7833 36° Northeast 100 115 900 -480 Descending KA90
09:30PM 43.0500 -70.8000 340° North 87 100 600 4,920 Descending KA90
09:32PM 43.0831 -70.8253 331° Northwest 84 97 15,500 5,040 Climbing Boston Center
09:33PM 43.1039 -70.8392 334° Northwest 84 97 15,500  Level Boston Center